Milan/Linate, Italy

11:13 PM CET on March 22, 2017 (GMT +0100)
Linate | | Change Station

Elev 338 ft 45.43 °N, 9.28 °E | Updated 23 minutes ago

Scattered Clouds
Scattered Clouds
54 °F
Feels Like 54 °F
N
13
Wind Variable Wind from East

Today
High -- | Low -- °F
--% Chance of Precip.
Yesterday
High -- | Low -- °F
Precip. -- in
Pressure 29.92 in
Visibility 3.7 miles
Clouds Scattered Clouds 1200 ft
Dew Point 52 °F
Humidity 94%
Rainfall 0.00 in
Snow Depth Not available.
6:22 AM 6:38 PM
Waning Crescent, 29% visible
METAR LIML 222150Z 10011KT 6000 SCT012 12/11 Q1013 NOSIG
Pressure 29.92 in
Visibility 3.7 miles
Clouds Scattered Clouds 1200 ft
Dew Point 52 °F
Humidity 94%
Rainfall 0.00 in
Snow Depth Not available.
6:22 AM 6:38 PM
Waning Crescent, 29% visible
METAR LIML 222150Z 10011KT 6000 SCT012 12/11 Q1013 NOSIG

Get Severe Weather Alerts

Thanks for signing up!

Be on the lookout for a verification email in your inbox.

You'll start receiving the daily forecast at 8 AM.

×

10-Day Weather Forecast

×

Almanac

Astronomy

Mar. 22, 2017 Rise Set
Actual Time
Civil Twilight
Nautical Twilight
Astronomical Twilight
Moon
Length of Visible Light
Length of Day
Tomorrow will be .
, % of the Moon is Illuminated

Today's Extremes

Country Highs Country Lows

Community

WunderPhotos

Upload Photos

1,962,540 photos uploaded!

WunderBlog® & News

Nearby

Air Quality

  Air Quality AQ Index Pollutant
Not available.

Snow Depth

Station Depth Elevation

Earthquake Activity

City Distance Mag. Time & Date
Minimum magnitude displayed is 2.5.

Earthquake Activity

City Distance Mag. Time & Date
Minimum magnitude displayed is 2.5.

Coastal Water Temperatures

Place Temperature

Stations

Nearby Weather Stations

Station Location Temp. Windchill Dew Point Humidity Wind Precip. Elev Updated Type